sensor_id;sensor_type;location;lat;lon;timestamp;pressure;altitude;pressure_sealevel;temperature;humidity
49999;BME280;68071;45.062;7.356;2023-11-19T00:02:58;95601.72;;;3.89;75.54
49999;BME280;68071;45.062;7.356;2023-11-19T00:06:02;95602.41;;;3.70;76.80
49999;BME280;68071;45.062;7.356;2023-11-19T00:09:08;95608.84;;;4.81;58.42
49999;BME280;68071;45.062;7.356;2023-11-19T00:12:12;95595.56;;;4.28;68.43
49999;BME280;68071;45.062;7.356;2023-11-19T00:15:17;95598.09;;;3.69;80.33
49999;BME280;68071;45.062;7.356;2023-11-19T00:18:22;95582.38;;;4.49;66.42
49999;BME280;68071;45.062;7.356;2023-11-19T00:21:26;95582.56;;;3.73;77.31
49999;BME280;68071;45.062;7.356;2023-11-19T00:24:32;95582.13;;;4.03;71.78
49999;BME280;68071;45.062;7.356;2023-11-19T00:27:36;95571.09;;;5.10;56.49
49999;BME280;68071;45.062;7.356;2023-11-19T00:30:43;95576.91;;;4.69;71.19
49999;BME280;68071;45.062;7.356;2023-11-19T00:33:47;95570.66;;;3.81;85.77
49999;BME280;68071;45.062;7.356;2023-11-19T00:36:51;95564.00;;;4.30;67.21
49999;BME280;68071;45.062;7.356;2023-11-19T00:39:55;95563.41;;;4.41;70.15
49999;BME280;68071;45.062;7.356;2023-11-19T00:43:00;95563.31;;;4.73;63.72
49999;BME280;68071;45.062;7.356;2023-11-19T00:46:07;95551.22;;;4.02;74.76
49999;BME280;68071;45.062;7.356;2023-11-19T00:49:11;95560.44;;;4.30;65.64
49999;BME280;68071;45.062;7.356;2023-11-19T00:52:17;95568.09;;;4.04;71.72
49999;BME280;68071;45.062;7.356;2023-11-19T00:55:22;95578.78;;;3.77;77.04
49999;BME280;68071;45.062;7.356;2023-11-19T00:58:27;95561.31;;;3.66;80.54
49999;BME280;68071;45.062;7.356;2023-11-19T01:01:31;95570.91;;;4.08;68.25
49999;BME280;68071;45.062;7.356;2023-11-19T01:04:35;95567.31;;;4.04;69.34
49999;BME280;68071;45.062;7.356;2023-11-19T01:07:40;95572.81;;;4.79;61.07
49999;BME280;68071;45.062;7.356;2023-11-19T01:10:44;95581.75;;;4.95;58.02
49999;BME280;68071;45.062;7.356;2023-11-19T01:13:48;95569.50;;;4.50;63.43
49999;BME280;68071;45.062;7.356;2023-11-19T01:16:52;95566.09;;;3.85;71.88
49999;BME280;68071;45.062;7.356;2023-11-19T01:19:57;95561.53;;;4.09;69.35
49999;BME280;68071;45.062;7.356;2023-11-19T01:23:02;95561.16;;;4.27;68.60
49999;BME280;68071;45.062;7.356;2023-11-19T01:26:08;95564.56;;;4.04;70.73
49999;BME280;68071;45.062;7.356;2023-11-19T01:29:14;95560.84;;;4.12;70.16
49999;BME280;68071;45.062;7.356;2023-11-19T01:32:18;95560.34;;;3.74;71.29
49999;BME280;68071;45.062;7.356;2023-11-19T01:35:22;95567.31;;;4.04;68.15
49999;BME280;68071;45.062;7.356;2023-11-19T01:38:27;95558.41;;;3.75;77.57
49999;BME280;68071;45.062;7.356;2023-11-19T01:41:35;95563.09;;;3.74;72.90
49999;BME280;68071;45.062;7.356;2023-11-19T01:44:58;95563.44;;;3.73;76.69
49999;BME280;68071;45.062;7.356;2023-11-19T01:48:02;95553.56;;;3.36;79.50
49999;BME280;68071;45.062;7.356;2023-11-19T01:51:12;95553.19;;;3.70;78.66
49999;BME280;68071;45.062;7.356;2023-11-19T01:54:16;95566.69;;;3.30;80.22
49999;BME280;68071;45.062;7.356;2023-11-19T01:57:22;95552.84;;;3.23;81.12
49999;BME280;68071;45.062;7.356;2023-11-19T02:00:26;95553.75;;;2.99;84.44
49999;BME280;68071;45.062;7.356;2023-11-19T02:03:31;95549.38;;;2.82;86.29
49999;BME280;68071;45.062;7.356;2023-11-19T02:06:40;95544.13;;;2.61;92.91
49999;BME280;68071;45.062;7.356;2023-11-19T02:09:44;95540.06;;;2.54;93.27
49999;BME280;68071;45.062;7.356;2023-11-19T02:12:49;95532.53;;;2.92;85.21
49999;BME280;68071;45.062;7.356;2023-11-19T02:15:54;95543.53;;;2.67;89.87
49999;BME280;68071;45.062;7.356;2023-11-19T02:18:58;95525.28;;;2.84;90.82
49999;BME280;68071;45.062;7.356;2023-11-19T02:22:03;95528.84;;;3.32;76.87
49999;BME280;68071;45.062;7.356;2023-11-19T02:25:14;95517.91;;;2.44;92.03
49999;BME280;68071;45.062;7.356;2023-11-19T02:28:22;95519.00;;;3.28;81.65
49999;BME280;68071;45.062;7.356;2023-11-19T02:31:26;95515.22;;;3.16;81.54
49999;BME280;68071;45.062;7.356;2023-11-19T02:34:31;95507.34;;;3.79;72.72
49999;BME280;68071;45.062;7.356;2023-11-19T02:37:34;95512.56;;;2.76;87.29
49999;BME280;68071;45.062;7.356;2023-11-19T02:40:38;95505.22;;;3.08;82.03
49999;BME280;68071;45.062;7.356;2023-11-19T02:43:43;95495.22;;;3.28;77.58
49999;BME280;68071;45.062;7.356;2023-11-19T02:46:47;95495.91;;;3.25;81.34
49999;BME280;68071;45.062;7.356;2023-11-19T02:49:51;95485.34;;;3.08;84.11
49999;BME280;68071;45.062;7.356;2023-11-19T02:52:56;95489.09;;;2.87;85.07
49999;BME280;68071;45.062;7.356;2023-11-19T02:56:00;95485.34;;;3.56;73.83
49999;BME280;68071;45.062;7.356;2023-11-19T02:59:10;95493.34;;;3.65;74.65
49999;BME280;68071;45.062;7.356;2023-11-19T03:02:30;95467.97;;;3.16;80.37
49999;BME280;68071;45.062;7.356;2023-11-19T03:05:37;95483.19;;;2.85;85.74
49999;BME280;68071;45.062;7.356;2023-11-19T03:08:44;95462.84;;;2.98;87.94
49999;BME280;68071;45.062;7.356;2023-11-19T03:11:48;95467.72;;;3.21;79.22
49999;BME280;68071;45.062;7.356;2023-11-19T03:14:54;95474.97;;;4.56;64.36
49999;BME280;68071;45.062;7.356;2023-11-19T03:17:59;95459.13;;;4.26;70.53
49999;BME280;68071;45.062;7.356;2023-11-19T03:21:03;95464.88;;;3.33;78.54
49999;BME280;68071;45.062;7.356;2023-11-19T03:24:07;95459.78;;;2.55;97.03
49999;BME280;68071;45.062;7.356;2023-11-19T03:27:12;95476.44;;;3.11;82.42
49999;BME280;68071;45.062;7.356;2023-11-19T03:30:16;95492.84;;;3.43;77.56
49999;BME280;68071;45.062;7.356;2023-11-19T03:33:21;95456.00;;;3.21;80.33
49999;BME280;68071;45.062;7.356;2023-11-19T03:36:25;95475.81;;;3.33;78.32
49999;BME280;68071;45.062;7.356;2023-11-19T03:39:36;95463.56;;;3.11;83.27
49999;BME280;68071;45.062;7.356;2023-11-19T03:42:41;95467.88;;;3.60;76.60
49999;BME280;68071;45.062;7.356;2023-11-19T03:45:45;95458.56;;;3.29;80.17
49999;BME280;68071;45.062;7.356;2023-11-19T03:48:50;95458.63;;;3.49;75.00
49999;BME280;68071;45.062;7.356;2023-11-19T03:51:54;95448.75;;;3.60;73.79
49999;BME280;68071;45.062;7.356;2023-11-19T03:54:58;95458.81;;;3.24;80.37
49999;BME280;68071;45.062;7.356;2023-11-19T03:58:02;95448.41;;;4.17;63.69
49999;BME280;68071;45.062;7.356;2023-11-19T04:01:11;95463.69;;;3.83;76.27
49999;BME280;68071;45.062;7.356;2023-11-19T04:04:15;95437.53;;;3.66;69.25
49999;BME280;68071;45.062;7.356;2023-11-19T04:07:19;95446.97;;;3.68;70.50
49999;BME280;68071;45.062;7.356;2023-11-19T04:10:24;95449.25;;;3.50;76.60
49999;BME280;68071;45.062;7.356;2023-11-19T04:13:28;95442.72;;;3.71;73.67
49999;BME280;68071;45.062;7.356;2023-11-19T04:16:32;95451.91;;;3.46;73.39
49999;BME280;68071;45.062;7.356;2023-11-19T04:19:37;95449.16;;;5.20;54.94
49999;BME280;68071;45.062;7.356;2023-11-19T04:22:41;95439.56;;;4.44;72.29
49999;BME280;68071;45.062;7.356;2023-11-19T04:25:45;95450.97;;;3.23;82.34
49999;BME280;68071;45.062;7.356;2023-11-19T04:28:50;95444.78;;;3.58;70.84
49999;BME280;68071;45.062;7.356;2023-11-19T04:31:56;95438.38;;;4.05;65.47
49999;BME280;68071;45.062;7.356;2023-11-19T04:35:00;95438.25;;;3.62;72.48
49999;BME280;68071;45.062;7.356;2023-11-19T04:38:04;95435.72;;;3.54;77.93
49999;BME280;68071;45.062;7.356;2023-11-19T04:41:09;95427.88;;;3.36;76.37
49999;BME280;68071;45.062;7.356;2023-11-19T04:44:14;95433.88;;;3.42;71.89
49999;BME280;68071;45.062;7.356;2023-11-19T04:47:19;95430.75;;;3.59;70.56
49999;BME280;68071;45.062;7.356;2023-11-19T04:50:23;95421.28;;;3.05;79.29
49999;BME280;68071;45.062;7.356;2023-11-19T04:53:29;95422.88;;;2.90;80.18
49999;BME280;68071;45.062;7.356;2023-11-19T04:56:34;95423.38;;;2.80;81.84
49999;BME280;68071;45.062;7.356;2023-11-19T04:59:40;95411.38;;;3.48;72.56
49999;BME280;68071;45.062;7.356;2023-11-19T05:02:45;95419.75;;;3.40;71.33
49999;BME280;68071;45.062;7.356;2023-11-19T05:05:49;95419.34;;;2.74;86.76
49999;BME280;68071;45.062;7.356;2023-11-19T05:08:53;95400.84;;;2.99;78.15
49999;BME280;68071;45.062;7.356;2023-11-19T05:11:58;95415.88;;;4.32;59.88
49999;BME280;68071;45.062;7.356;2023-11-19T05:15:02;95404.28;;;4.19;64.59
49999;BME280;68071;45.062;7.356;2023-11-19T05:18:08;95398.03;;;3.11;81.97
49999;BME280;68071;45.062;7.356;2023-11-19T05:21:12;95399.69;;;3.32;77.89
49999;BME280;68071;45.062;7.356;2023-11-19T05:24:16;95401.66;;;3.51;71.27
49999;BME280;68071;45.062;7.356;2023-11-19T05:27:20;95389.06;;;3.46;71.26
49999;BME280;68071;45.062;7.356;2023-11-19T05:30:24;95388.19;;;3.42;76.01
49999;BME280;68071;45.062;7.356;2023-11-19T05:33:28;95387.09;;;3.27;74.70
49999;BME280;68071;45.062;7.356;2023-11-19T05:36:32;95397.81;;;3.72;70.13
49999;BME280;68071;45.062;7.356;2023-11-19T05:39:36;95391.09;;;3.85;68.60
49999;BME280;68071;45.062;7.356;2023-11-19T05:42:41;95368.72;;;3.44;73.70
49999;BME280;68071;45.062;7.356;2023-11-19T05:45:45;95384.31;;;3.43;69.84
49999;BME280;68071;45.062;7.356;2023-11-19T05:48:49;95394.16;;;3.28;76.07
49999;BME280;68071;45.062;7.356;2023-11-19T05:51:53;95374.66;;;3.14;77.60
49999;BME280;68071;45.062;7.356;2023-11-19T05:55:02;95382.47;;;3.47;70.70
49999;BME280;68071;45.062;7.356;2023-11-19T05:58:09;95389.06;;;3.62;70.40
49999;BME280;68071;45.062;7.356;2023-11-19T06:01:15;95383.59;;;3.11;82.33
49999;BME280;68071;45.062;7.356;2023-11-19T06:04:18;95382.19;;;2.85;81.64
49999;BME280;68071;45.062;7.356;2023-11-19T06:07:22;95389.22;;;2.86;81.86
49999;BME280;68071;45.062;7.356;2023-11-19T06:10:27;95384.84;;;3.49;68.06
49999;BME280;68071;45.062;7.356;2023-11-19T06:13:34;95391.75;;;3.27;77.59
49999;BME280;68071;45.062;7.356;2023-11-19T06:16:38;95382.56;;;2.39;94.27
49999;BME280;68071;45.062;7.356;2023-11-19T06:19:43;95387.03;;;2.92;79.38
49999;BME280;68071;45.062;7.356;2023-11-19T06:22:48;95395.22;;;3.08;73.76
49999;BME280;68071;45.062;7.356;2023-11-19T06:25:54;95390.41;;;3.53;69.53
49999;BME280;68071;45.062;7.356;2023-11-19T06:28:58;95391.88;;;2.98;75.64
49999;BME280;68071;45.062;7.356;2023-11-19T06:32:02;95387.72;;;3.21;73.44
49999;BME280;68071;45.062;7.356;2023-11-19T06:35:06;95394.75;;;3.38;73.63
49999;BME280;68071;45.062;7.356;2023-11-19T06:38:12;95400.66;;;2.60;85.14
49999;BME280;68071;45.062;7.356;2023-11-19T06:41:16;95399.16;;;3.26;74.37
49999;BME280;68071;45.062;7.356;2023-11-19T06:44:20;95396.69;;;3.37;70.31
49999;BME280;68071;45.062;7.356;2023-11-19T06:47:27;95393.66;;;3.42;74.58
49999;BME280;68071;45.062;7.356;2023-11-19T06:50:32;95378.59;;;4.04;68.67
49999;BME280;68071;45.062;7.356;2023-11-19T06:53:36;95398.34;;;3.42;76.95
49999;BME280;68071;45.062;7.356;2023-11-19T06:56:40;95401.63;;;3.67;76.95
49999;BME280;68071;45.062;7.356;2023-11-19T06:59:45;95395.47;;;3.70;77.74
49999;BME280;68071;45.062;7.356;2023-11-19T07:02:49;95390.16;;;3.77;78.23
49999;BME280;68071;45.062;7.356;2023-11-19T07:05:55;95392.53;;;3.99;79.02
49999;BME280;68071;45.062;7.356;2023-11-19T07:09:00;95391.00;;;4.83;66.28
49999;BME280;68071;45.062;7.356;2023-11-19T07:12:12;95392.13;;;4.16;73.74
49999;BME280;68071;45.062;7.356;2023-11-19T07:15:17;95399.72;;;4.07;87.88
49999;BME280;68071;45.062;7.356;2023-11-19T07:18:21;95396.16;;;4.03;84.76
49999;BME280;68071;45.062;7.356;2023-11-19T07:21:26;95388.06;;;3.19;99.26
49999;BME280;68071;45.062;7.356;2023-11-19T07:24:32;95398.53;;;3.49;93.33
49999;BME280;68071;45.062;7.356;2023-11-19T07:27:36;95389.09;;;4.02;88.89
49999;BME280;68071;45.062;7.356;2023-11-19T07:30:41;95385.97;;;3.84;98.06
49999;BME280;68071;45.062;7.356;2023-11-19T07:33:46;95392.13;;;4.16;89.15
49999;BME280;68071;45.062;7.356;2023-11-19T07:36:51;95382.38;;;4.38;87.70
49999;BME280;68071;45.062;7.356;2023-11-19T07:39:54;95382.88;;;4.44;80.72
49999;BME280;68071;45.062;7.356;2023-11-19T07:42:58;95380.03;;;4.60;100.00
49999;BME280;68071;45.062;7.356;2023-11-19T07:46:03;95368.06;;;4.92;84.61
49999;BME280;68071;45.062;7.356;2023-11-19T07:49:08;95380.94;;;4.68;93.77
49999;BME280;68071;45.062;7.356;2023-11-19T07:52:13;95374.25;;;5.12;80.75
49999;BME280;68071;45.062;7.356;2023-11-19T07:55:16;95356.56;;;5.06;86.49
49999;BME280;68071;45.062;7.356;2023-11-19T07:58:20;95359.66;;;5.04;81.97
49999;BME280;68071;45.062;7.356;2023-11-19T08:01:24;95376.34;;;5.19;80.00
49999;BME280;68071;45.062;7.356;2023-11-19T08:04:28;95358.91;;;5.07;90.71
49999;BME280;68071;45.062;7.356;2023-11-19T08:07:32;95367.22;;;4.64;78.54
49999;BME280;68071;45.062;7.356;2023-11-19T08:10:36;95359.28;;;4.82;78.93
49999;BME280;68071;45.062;7.356;2023-11-19T08:13:40;95366.22;;;4.99;69.69
49999;BME280;68071;45.062;7.356;2023-11-19T08:16:45;95357.59;;;4.97;82.23
49999;BME280;68071;45.062;7.356;2023-11-19T08:19:50;95358.66;;;4.89;83.35
49999;BME280;68071;45.062;7.356;2023-11-19T08:22:54;95358.78;;;5.23;78.54
49999;BME280;68071;45.062;7.356;2023-11-19T08:25:58;95354.38;;;4.92;98.70
49999;BME280;68071;45.062;7.356;2023-11-19T08:29:02;95372.53;;;5.27;99.59
49999;BME280;68071;45.062;7.356;2023-11-19T08:32:07;95364.19;;;5.73;74.32
49999;BME280;68071;45.062;7.356;2023-11-19T08:35:11;95361.47;;;5.73;92.23
49999;BME280;68071;45.062;7.356;2023-11-19T08:38:15;95363.50;;;5.80;93.12
49999;BME280;68071;45.062;7.356;2023-11-19T08:41:18;95361.50;;;5.77;87.46
49999;BME280;68071;45.062;7.356;2023-11-19T08:44:22;95364.97;;;5.74;100.00
49999;BME280;68071;45.062;7.356;2023-11-19T08:47:26;95358.75;;;5.77;98.81
49999;BME280;68071;45.062;7.356;2023-11-19T08:50:30;95358.63;;;5.97;94.02
49999;BME280;68071;45.062;7.356;2023-11-19T08:53:35;95360.56;;;5.96;94.17
49999;BME280;68071;45.062;7.356;2023-11-19T08:56:38;95354.94;;;6.16;92.89
49999;BME280;68071;45.062;7.356;2023-11-19T08:59:43;95365.41;;;6.03;94.88
49999;BME280;68071;45.062;7.356;2023-11-19T09:02:49;95350.63;;;5.84;87.44
49999;BME280;68071;45.062;7.356;2023-11-19T09:05:53;95357.69;;;5.85;86.46
49999;BME280;68071;45.062;7.356;2023-11-19T09:08:58;95351.13;;;6.24;77.16
49999;BME280;68071;45.062;7.356;2023-11-19T09:12:06;95356.50;;;6.13;81.49
49999;BME280;68071;45.062;7.356;2023-11-19T09:15:10;95349.09;;;6.17;81.22
49999;BME280;68071;45.062;7.356;2023-11-19T09:18:14;95349.69;;;6.38;75.14
49999;BME280;68071;45.062;7.356;2023-11-19T09:21:18;95367.91;;;6.53;66.30
49999;BME280;68071;45.062;7.356;2023-11-19T09:24:22;95335.25;;;6.86;57.81
49999;BME280;68071;45.062;7.356;2023-11-19T09:27:26;95346.06;;;7.09;55.63
49999;BME280;68071;45.062;7.356;2023-11-19T09:30:30;95369.41;;;7.33;53.37
49999;BME280;68071;45.062;7.356;2023-11-19T09:33:37;95332.66;;;7.60;56.38
49999;BME280;68071;45.062;7.356;2023-11-19T09:36:42;95362.19;;;7.70;53.86
49999;BME280;68071;45.062;7.356;2023-11-19T09:39:47;95348.06;;;7.75;55.71
49999;BME280;68071;45.062;7.356;2023-11-19T09:42:51;95355.59;;;7.85;54.22
49999;BME280;68071;45.062;7.356;2023-11-19T09:45:56;95368.28;;;8.05;54.57
49999;BME280;68071;45.062;7.356;2023-11-19T09:49:02;95368.31;;;8.19;54.25
49999;BME280;68071;45.062;7.356;2023-11-19T09:52:07;95364.03;;;8.32;51.82
49999;BME280;68071;45.062;7.356;2023-11-19T09:55:11;95358.56;;;8.36;52.97
49999;BME280;68071;45.062;7.356;2023-11-19T09:58:16;95353.84;;;8.29;53.31
49999;BME280;68071;45.062;7.356;2023-11-19T10:01:20;95344.75;;;8.22;52.73
49999;BME280;68071;45.062;7.356;2023-11-19T10:04:25;95354.19;;;8.24;51.19
49999;BME280;68071;45.062;7.356;2023-11-19T10:07:35;95356.63;;;8.40;52.84
49999;BME280;68071;45.062;7.356;2023-11-19T10:10:40;95353.06;;;8.36;53.71
49999;BME280;68071;45.062;7.356;2023-11-19T10:13:44;95358.16;;;8.30;49.71
49999;BME280;68071;45.062;7.356;2023-11-19T10:16:51;95348.38;;;8.47;52.66
49999;BME280;68071;45.062;7.356;2023-11-19T10:19:55;95353.88;;;8.40;49.20
49999;BME280;68071;45.062;7.356;2023-11-19T10:22:59;95337.81;;;8.64;52.15
49999;BME280;68071;45.062;7.356;2023-11-19T10:26:03;95342.53;;;8.71;49.34
49999;BME280;68071;45.062;7.356;2023-11-19T10:29:13;95365.03;;;8.87;49.66
49999;BME280;68071;45.062;7.356;2023-11-19T10:32:17;95332.31;;;8.71;49.51
49999;BME280;68071;45.062;7.356;2023-11-19T10:35:21;95350.03;;;8.67;49.24
49999;BME280;68071;45.062;7.356;2023-11-19T10:38:26;95347.28;;;8.81;47.41
49999;BME280;68071;45.062;7.356;2023-11-19T10:41:31;95344.09;;;8.61;49.58
49999;BME280;68071;45.062;7.356;2023-11-19T10:44:35;95348.03;;;8.67;49.89
49999;BME280;68071;45.062;7.356;2023-11-19T10:47:40;95347.66;;;8.80;49.52
49999;BME280;68071;45.062;7.356;2023-11-19T10:50:44;95327.22;;;8.84;50.30
49999;BME280;68071;45.062;7.356;2023-11-19T10:53:49;95339.41;;;8.87;51.00
49999;BME280;68071;45.062;7.356;2023-11-19T10:56:59;95349.25;;;8.88;49.22
49999;BME280;68071;45.062;7.356;2023-11-19T11:00:05;95334.69;;;8.95;50.49
49999;BME280;68071;45.062;7.356;2023-11-19T11:03:25;95341.38;;;9.08;51.22
49999;BME280;68071;45.062;7.356;2023-11-19T11:06:29;95330.00;;;9.17;50.57
49999;BME280;68071;45.062;7.356;2023-11-19T11:09:34;95329.56;;;9.40;49.24
49999;BME280;68071;45.062;7.356;2023-11-19T11:12:40;95330.72;;;9.64;47.60
49999;BME280;68071;45.062;7.356;2023-11-19T11:15:45;95315.81;;;9.26;48.20
49999;BME280;68071;45.062;7.356;2023-11-19T11:18:51;95318.53;;;9.33;47.39
49999;BME280;68071;45.062;7.356;2023-11-19T11:21:56;95323.25;;;9.54;49.05
49999;BME280;68071;45.062;7.356;2023-11-19T11:25:23;95306.69;;;9.58;49.71
49999;BME280;68071;45.062;7.356;2023-11-19T11:28:43;95330.72;;;9.57;45.93
49999;BME280;68071;45.062;7.356;2023-11-19T11:38:36;95298.34;;;9.83;47.88
49999;BME280;68071;45.062;7.356;2023-11-19T11:41:42;95300.94;;;10.19;44.00
49999;BME280;68071;45.062;7.356;2023-11-19T11:45:03;95308.78;;;10.35;45.86
49999;BME280;68071;45.062;7.356;2023-11-19T11:48:15;95294.50;;;10.48;44.83
49999;BME280;68071;45.062;7.356;2023-11-19T11:54:47;95279.97;;;10.33;46.40
49999;BME280;68071;45.062;7.356;2023-11-19T11:57:51;95278.78;;;10.30;43.87
49999;BME280;68071;45.062;7.356;2023-11-19T12:00:57;95289.34;;;10.53;45.07
49999;BME280;68071;45.062;7.356;2023-11-19T12:04:04;95275.03;;;9.95;46.74
49999;BME280;68071;45.062;7.356;2023-11-19T12:07:12;95284.91;;;9.92;45.70
49999;BME280;68071;45.062;7.356;2023-11-19T12:10:20;95262.44;;;9.87;46.90
49999;BME280;68071;45.062;7.356;2023-11-19T12:13:43;95269.50;;;9.95;47.54
49999;BME280;68071;45.062;7.356;2023-11-19T12:16:50;95280.91;;;10.01;45.50
49999;BME280;68071;45.062;7.356;2023-11-19T12:19:54;95267.09;;;10.01;45.04
49999;BME280;68071;45.062;7.356;2023-11-19T12:23:04;95277.72;;;10.09;45.02
49999;BME280;68071;45.062;7.356;2023-11-19T12:26:21;95256.66;;;10.34;45.38
49999;BME280;68071;45.062;7.356;2023-11-19T12:29:42;95275.69;;;10.17;45.08
49999;BME280;68071;45.062;7.356;2023-11-19T12:32:48;95269.03;;;10.11;45.87
49999;BME280;68071;45.062;7.356;2023-11-19T12:35:53;95261.97;;;10.03;45.08
49999;BME280;68071;45.062;7.356;2023-11-19T12:38:57;95254.78;;;10.16;43.20
49999;BME280;68071;45.062;7.356;2023-11-19T12:42:01;95252.34;;;10.33;46.02
49999;BME280;68071;45.062;7.356;2023-11-19T12:45:05;95251.47;;;10.50;43.03
49999;BME280;68071;45.062;7.356;2023-11-19T12:48:09;95257.03;;;10.47;43.22
49999;BME280;68071;45.062;7.356;2023-11-19T12:51:15;95235.06;;;10.14;45.02
49999;BME280;68071;45.062;7.356;2023-11-19T12:54:19;95227.13;;;10.31;45.84
49999;BME280;68071;45.062;7.356;2023-11-19T12:57:40;95245.69;;;10.26;44.49
49999;BME280;68071;45.062;7.356;2023-11-19T13:00:46;95236.56;;;10.33;42.15
49999;BME280;68071;45.062;7.356;2023-11-19T13:03:50;95215.91;;;10.52;45.85
49999;BME280;68071;45.062;7.356;2023-11-19T13:06:55;95227.81;;;10.49;45.74
49999;BME280;68071;45.062;7.356;2023-11-19T13:10:01;95223.41;;;10.59;43.34
49999;BME280;68071;45.062;7.356;2023-11-19T13:13:07;95223.59;;;10.83;41.67
49999;BME280;68071;45.062;7.356;2023-11-19T13:16:12;95225.53;;;10.29;44.04
49999;BME280;68071;45.062;7.356;2023-11-19T13:19:16;95217.66;;;10.24;45.92
49999;BME280;68071;45.062;7.356;2023-11-19T13:22:22;95223.19;;;10.81;42.69
49999;BME280;68071;45.062;7.356;2023-11-19T13:25:28;95225.22;;;10.77;45.36
49999;BME280;68071;45.062;7.356;2023-11-19T13:28:33;95214.13;;;10.80;43.51
49999;BME280;68071;45.062;7.356;2023-11-19T13:31:37;95223.56;;;10.86;44.76
49999;BME280;68071;45.062;7.356;2023-11-19T13:34:42;95206.78;;;10.63;43.71
49999;BME280;68071;45.062;7.356;2023-11-19T13:37:46;95210.34;;;10.59;44.56
49999;BME280;68071;45.062;7.356;2023-11-19T13:40:50;95205.59;;;10.60;43.62
49999;BME280;68071;45.062;7.356;2023-11-19T13:43:55;95200.75;;;10.75;43.03
49999;BME280;68071;45.062;7.356;2023-11-19T13:46:59;95203.81;;;10.88;43.59
49999;BME280;68071;45.062;7.356;2023-11-19T13:50:03;95197.94;;;10.82;42.53
49999;BME280;68071;45.062;7.356;2023-11-19T13:53:10;95187.88;;;10.99;41.52
49999;BME280;68071;45.062;7.356;2023-11-19T13:56:14;95191.00;;;11.05;42.29
49999;BME280;68071;45.062;7.356;2023-11-19T13:59:18;95190.28;;;11.35;41.10
49999;BME280;68071;45.062;7.356;2023-11-19T14:02:22;95177.16;;;11.43;40.99
49999;BME280;68071;45.062;7.356;2023-11-19T14:05:26;95176.00;;;11.06;41.42
49999;BME280;68071;45.062;7.356;2023-11-19T14:08:30;95181.66;;;11.30;42.12
49999;BME280;68071;45.062;7.356;2023-11-19T14:11:34;95169.22;;;11.11;41.14
49999;BME280;68071;45.062;7.356;2023-11-19T14:14:38;95155.19;;;10.90;44.34
49999;BME280;68071;45.062;7.356;2023-11-19T14:17:43;95173.13;;;10.71;44.85
49999;BME280;68071;45.062;7.356;2023-11-19T14:20:47;95166.66;;;10.43;45.66
49999;BME280;68071;45.062;7.356;2023-11-19T14:23:51;95184.56;;;10.21;45.61
49999;BME280;68071;45.062;7.356;2023-11-19T14:26:55;95182.91;;;10.27;45.02
49999;BME280;68071;45.062;7.356;2023-11-19T14:30:04;95183.72;;;10.24;45.94
49999;BME280;68071;45.062;7.356;2023-11-19T14:33:09;95183.75;;;10.20;46.90
49999;BME280;68071;45.062;7.356;2023-11-19T14:36:13;95175.50;;;10.17;46.71
49999;BME280;68071;45.062;7.356;2023-11-19T14:39:17;95170.81;;;10.10;46.68
49999;BME280;68071;45.062;7.356;2023-11-19T14:42:22;95173.63;;;10.03;46.92
49999;BME280;68071;45.062;7.356;2023-11-19T14:45:26;95185.81;;;10.05;46.96
49999;BME280;68071;45.062;7.356;2023-11-19T14:48:30;95179.94;;;9.99;48.76
49999;BME280;68071;45.062;7.356;2023-11-19T14:51:38;95173.25;;;9.93;46.38
49999;BME280;68071;45.062;7.356;2023-11-19T14:54:42;95198.53;;;9.88;51.15
49999;BME280;68071;45.062;7.356;2023-11-19T14:57:47;95186.25;;;8.89;62.13
49999;BME280;68071;45.062;7.356;2023-11-19T15:00:52;95192.94;;;8.85;68.23
49999;BME280;68071;45.062;7.356;2023-11-19T15:03:56;95176.44;;;8.63;70.56
49999;BME280;68071;45.062;7.356;2023-11-19T15:07:00;95190.22;;;8.70;57.34
49999;BME280;68071;45.062;7.356;2023-11-19T15:10:06;95201.25;;;8.77;59.98
49999;BME280;68071;45.062;7.356;2023-11-19T15:13:14;95190.81;;;7.62;79.89
49999;BME280;68071;45.062;7.356;2023-11-19T15:16:18;95204.00;;;8.67;60.34
49999;BME280;68071;45.062;7.356;2023-11-19T15:19:28;95207.03;;;7.96;73.47
49999;BME280;68071;45.062;7.356;2023-11-19T15:22:33;95213.31;;;7.90;70.41
49999;BME280;68071;45.062;7.356;2023-11-19T15:25:37;95201.84;;;7.66;80.88
49999;BME280;68071;45.062;7.356;2023-11-19T15:28:40;95197.31;;;7.18;87.03
49999;BME280;68071;45.062;7.356;2023-11-19T15:31:44;95195.63;;;6.99;82.79
49999;BME280;68071;45.062;7.356;2023-11-19T15:34:48;95199.19;;;6.99;86.86
49999;BME280;68071;45.062;7.356;2023-11-19T15:37:52;95206.91;;;7.60;66.04
49999;BME280;68071;45.062;7.356;2023-11-19T15:40:56;95201.00;;;7.54;75.15
49999;BME280;68071;45.062;7.356;2023-11-19T15:44:01;95201.31;;;7.35;78.62
49999;BME280;68071;45.062;7.356;2023-11-19T15:47:07;95189.63;;;6.82;87.02
49999;BME280;68071;45.062;7.356;2023-11-19T15:50:11;95214.88;;;6.46;82.01
49999;BME280;68071;45.062;7.356;2023-11-19T15:53:16;95207.03;;;6.48;85.69
49999;BME280;68071;45.062;7.356;2023-11-19T15:56:21;95206.38;;;6.14;94.68
49999;BME280;68071;45.062;7.356;2023-11-19T15:59:25;95213.00;;;7.21;68.49
49999;BME280;68071;45.062;7.356;2023-11-19T16:02:30;95214.00;;;7.61;63.09
49999;BME280;68071;45.062;7.356;2023-11-19T16:05:34;95214.81;;;7.69;62.02
49999;BME280;68071;45.062;7.356;2023-11-19T16:08:38;95220.56;;;6.72;76.94
49999;BME280;68071;45.062;7.356;2023-11-19T16:11:43;95229.25;;;7.44;64.68
49999;BME280;68071;45.062;7.356;2023-11-19T16:14:47;95232.63;;;7.16;70.09
49999;BME280;68071;45.062;7.356;2023-11-19T16:17:51;95220.63;;;7.49;62.51
49999;BME280;68071;45.062;7.356;2023-11-19T16:20:55;95223.84;;;6.92;72.40
49999;BME280;68071;45.062;7.356;2023-11-19T16:23:59;95230.88;;;6.37;78.73
49999;BME280;68071;45.062;7.356;2023-11-19T16:27:06;95232.34;;;6.72;73.09
49999;BME280;68071;45.062;7.356;2023-11-19T16:30:10;95240.41;;;7.06;67.93
49999;BME280;68071;45.062;7.356;2023-11-19T16:33:14;95220.53;;;6.64;72.70
49999;BME280;68071;45.062;7.356;2023-11-19T16:36:18;95227.63;;;7.32;63.67
49999;BME280;68071;45.062;7.356;2023-11-19T16:39:22;95220.56;;;7.35;64.39
49999;BME280;68071;45.062;7.356;2023-11-19T16:42:26;95234.19;;;7.13;65.87
49999;BME280;68071;45.062;7.356;2023-11-19T16:45:30;95221.38;;;7.39;62.68